Time;durP1;ratioP1;P1;durP2;ratioP2;P2;SDS_P1;SDS_P2;PMS_P1;PMS_P2;Temp;Humidity;BMP_temperature;BMP_pressure;BME280_temperature;BME280_humidity;BME280_pressure;Samples;Min_cycle;Max_cycle;Signal;HPM_P1;HPM_P2
2023/06/14 00:00:11;;;;;;;5.90;3.65;;;;;;;14.94;38.46;96020.47;5017237;28;20049;-67
2023/06/14 00:02:39;;;;;;;9.73;3.72;;;;;;;14.84;38.76;96032.41;5021825;28;20065;-67
2023/06/14 00:05:05;;;;;;;6.03;3.40;;;;;;;14.86;38.78;96030.81;5015654;28;20041;-68
2023/06/14 00:07:36;;;;;;;7.95;3.50;;;;;;;14.85;38.25;96031.97;5021428;28;20103;-66
2023/06/14 00:10:03;;;;;;;6.75;3.28;;;;;;;14.86;38.91;96030.81;5021674;28;20131;-67
2023/06/14 00:12:28;;;;;;;6.70;3.38;;;;;;;14.79;38.89;96030.09;5019396;28;20046;-67
2023/06/14 00:14:53;;;;;;;5.28;3.13;;;;;;;14.76;39.14;96028.94;5021203;28;20041;-67
2023/06/14 00:17:19;;;;;;;5.05;3.30;;;;;;;14.80;38.98;96026.16;5017269;28;20513;-68
2023/06/14 00:19:45;;;;;;;7.82;3.88;;;;;;;14.78;39.11;96029.31;5021501;28;20387;-68
2023/06/14 00:22:12;;;;;;;7.05;3.80;;;;;;;14.69;38.96;96032.56;5015781;28;20072;-69
2023/06/14 00:24:37;;;;;;;5.75;3.20;;;;;;;14.64;39.10;96023.94;5019806;28;20132;-69
2023/06/14 00:27:03;;;;;;;9.48;3.83;;;;;;;14.71;39.21;96023.88;5018874;28;20611;-69
2023/06/14 00:29:28;;;;;;;8.13;3.78;;;;;;;14.77;38.92;96029.75;5018737;28;20041;-67
2023/06/14 00:31:53;;;;;;;7.20;4.15;;;;;;;14.72;38.96;96030.97;5032323;28;20061;-68
2023/06/14 00:34:19;;;;;;;7.38;3.97;;;;;;;14.66;39.11;96030.63;5009317;28;20509;-67
2023/06/14 00:36:44;;;;;;;6.55;3.58;;;;;;;14.53;39.82;96022.06;5000981;28;20045;-68
2023/06/14 00:39:09;;;;;;;8.15;3.60;;;;;;;14.56;39.77;96028.72;4996888;28;20491;-68
2023/06/14 00:41:35;;;;;;;6.18;3.80;;;;;;;14.53;39.86;96021.28;5007152;28;20036;-68
2023/06/14 00:44:01;;;;;;;7.22;3.53;;;;;;;14.60;39.56;96020.44;5018965;28;20037;-68
2023/06/14 00:46:26;;;;;;;7.45;3.55;;;;;;;14.63;39.68;96020.41;5014477;28;20132;-68
2023/06/14 00:48:52;;;;;;;9.90;4.00;;;;;;;14.58;39.44;96020.09;5023449;28;20042;-68
2023/06/14 00:51:18;;;;;;;9.07;3.40;;;;;;;14.55;39.67;96021.66;5027789;28;20069;-68
2023/06/14 00:53:46;;;;;;;6.53;3.45;;;;;;;14.61;39.61;96028.31;5041545;28;20049;-68
2023/06/14 00:56:13;;;;;;;8.43;3.60;;;;;;;14.58;39.72;96018.09;5016427;28;20068;-67
2023/06/14 00:58:39;;;;;;;8.40;3.80;;;;;;;14.53;40.24;96021.28;5022027;28;20045;-68
2023/06/14 01:01:04;;;;;;;7.22;3.45;;;;;;;14.56;39.69;96020.47;5033965;28;20033;-66
2023/06/14 01:03:31;;;;;;;8.23;3.55;;;;;;;14.50;40.05;96011.09;5031870;28;20041;-70
2023/06/14 01:06:29;;;;;;;9.95;3.50;;;;;;;14.52;40.17;96011.44;5019519;28;20045;-69
2023/06/14 01:09:18;;;;;;;5.25;3.33;;;;;;;14.51;40.23;96016.19;5021125;28;20069;-69
2023/06/14 01:11:56;;;;;;;9.25;3.45;;;;;;;14.52;40.28;96017.75;5022401;28;20115;-68
2023/06/14 01:14:22;;;;;;;8.48;3.70;;;;;;;14.59;39.87;96019.69;5017128;28;20064;-70
2023/06/14 01:16:52;;;;;;;9.80;3.35;;;;;;;14.57;40.27;96004.69;5020322;28;20049;-70
2023/06/14 01:19:22;;;;;;;5.97;3.17;;;;;;;14.43;40.34;96005.66;5016974;28;20045;-70
2023/06/14 01:21:50;;;;;;;7.00;3.60;;;;;;;14.43;40.19;96014.69;5021424;28;20068;-69
2023/06/14 01:24:19;;;;;;;9.50;4.03;;;;;;;14.32;40.78;96008.50;5015816;28;20065;-69
2023/06/14 01:26:46;;;;;;;6.80;3.60;;;;;;;14.28;41.04;96011.28;5028627;28;20041;-69
2023/06/14 01:29:17;;;;;;;7.30;3.15;;;;;;;14.26;40.90;96005.41;5029586;28;20107;-69
2023/06/14 01:31:43;;;;;;;5.15;3.28;;;;;;;14.34;40.57;96006.13;5028831;28;20046;-69
2023/06/14 01:34:09;;;;;;;6.22;3.92;;;;;;;14.32;40.85;96001.00;5020094;28;20136;-68
2023/06/14 01:36:39;;;;;;;6.93;3.88;;;;;;;14.33;41.04;95999.84;5024557;28;20045;-69
2023/06/14 01:39:06;;;;;;;5.63;3.53;;;;;;;14.30;41.12;95989.63;5019667;28;20828;-65
2023/06/14 01:41:32;;;;;;;4.40;3.17;;;;;;;14.30;41.04;96003.41;5023566;28;20072;-67
2023/06/14 01:43:59;;;;;;;6.15;3.45;;;;;;;14.37;41.10;95999.00;5023898;28;20040;-68
2023/06/14 01:46:25;;;;;;;4.53;3.15;;;;;;;14.35;40.71;95999.44;5019205;28;20556;-68
2023/06/14 01:48:51;;;;;;;4.63;3.50;;;;;;;14.41;40.91;95997.78;5026658;28;20483;-68
2023/06/14 01:51:16;;;;;;;6.30;3.60;;;;;;;14.33;41.05;95990.78;5015198;28;20046;-69
2023/06/14 01:53:41;;;;;;;7.13;3.30;;;;;;;14.42;40.80;95982.03;5023912;28;20045;-68
2023/06/14 01:56:07;;;;;;;10.75;3.60;;;;;;;14.38;40.89;95992.31;5019331;28;20037;-69
2023/06/14 01:58:32;;;;;;;6.65;3.25;;;;;;;14.34;41.35;95995.09;5024581;28;20050;-69
2023/06/14 02:01:00;;;;;;;4.47;2.92;;;;;;;14.43;40.85;95995.41;5025549;28;20558;-69
2023/06/14 02:03:26;;;;;;;7.68;3.40;;;;;;;14.29;41.63;95990.81;5033401;28;20045;-67
2023/06/14 02:05:51;;;;;;;5.25;3.55;;;;;;;14.19;41.74;95988.94;5043785;28;20041;-69
2023/06/14 02:08:17;;;;;;;5.55;3.60;;;;;;;14.16;41.64;95992.50;5019403;28;20045;-69
2023/06/14 02:10:43;;;;;;;6.50;3.45;;;;;;;14.14;41.53;95990.16;5024614;28;20045;-69
2023/06/14 02:13:08;;;;;;;6.60;3.30;;;;;;;14.04;41.91;95999.28;5018844;28;20042;-69
2023/06/14 02:15:33;;;;;;;7.85;3.33;;;;;;;14.07;42.23;95997.72;5024608;28;20041;-69
2023/06/14 02:18:03;;;;;;;5.57;3.50;;;;;;;14.02;41.92;95998.91;5022467;28;20103;-69
2023/06/14 02:20:29;;;;;;;4.47;2.75;;;;;;;14.02;42.18;96004.44;5021191;28;20075;-69
2023/06/14 02:22:54;;;;;;;5.90;2.97;;;;;;;13.91;42.62;96001.75;5022756;28;20045;-69
2023/06/14 02:25:20;;;;;;;5.35;3.53;;;;;;;13.82;42.85;95998.69;5019118;28;20099;-70
2023/06/14 02:27:45;;;;;;;8.80;3.60;;;;;;;13.87;42.94;96000.25;5022742;28;20517;-70
2023/06/14 02:30:12;;;;;;;7.68;3.80;;;;;;;13.76;42.84;96001.09;5019996;28;20068;-67
2023/06/14 02:32:38;;;;;;;6.18;3.50;;;;;;;13.72;43.29;96000.34;5022767;28;20076;-67
2023/06/14 02:35:04;;;;;;;5.78;3.25;;;;;;;13.73;43.00;95996.38;5021323;28;20076;-64
2023/06/14 02:37:29;;;;;;;6.85;3.40;;;;;;;13.66;43.38;96007.44;5022957;28;20048;-69
2023/06/14 02:39:56;;;;;;;7.40;3.67;;;;;;;13.67;43.26;96006.28;5022690;28;20124;-69
2023/06/14 02:42:21;;;;;;;6.68;3.83;;;;;;;13.62;43.69;96009.44;5018699;28;20045;-67
2023/06/14 02:44:50;;;;;;;5.40;3.10;;;;;;;13.54;43.82;96011.47;5022258;28;20099;-68
2023/06/14 02:47:19;;;;;;;7.00;3.58;;;;;;;13.55;43.92;96006.75;5016961;28;20079;-69
2023/06/14 02:49:46;;;;;;;8.25;3.47;;;;;;;13.44;43.93;96012.31;5023028;28;20490;-69
2023/06/14 02:52:12;;;;;;;10.90;3.45;;;;;;;13.48;44.27;96006.78;5017980;28;20057;-68
2023/06/14 02:54:37;;;;;;;7.93;3.70;;;;;;;13.50;43.85;96007.94;5022795;28;20045;-69
2023/06/14 02:57:03;;;;;;;5.05;3.40;;;;;;;13.52;44.24;96007.53;5020077;28;20531;-66
2023/06/14 02:59:28;;;;;;;6.40;3.45;;;;;;;13.48;44.13;96017.78;5020489;28;20838;-69
2023/06/14 03:01:54;;;;;;;6.18;3.45;;;;;;;13.53;43.84;96014.63;5023351;28;20458;-68
2023/06/14 03:04:20;;;;;;;6.10;3.38;;;;;;;13.51;44.16;96015.00;5018645;28;20068;-68
2023/06/14 03:06:50;;;;;;;9.50;3.50;;;;;;;13.46;44.31;96011.91;5031465;28;20068;-67
2023/06/14 03:09:15;;;;;;;6.00;3.30;;;;;;;13.57;43.94;96010.63;5019660;28;20363;-69
2023/06/14 03:11:41;;;;;;;5.85;3.55;;;;;;;13.48;44.53;96015.81;5021671;28;20041;-69
2023/06/14 03:14:08;;;;;;;9.50;3.65;;;;;;;13.45;44.25;96013.88;5017797;28;20386;-67
2023/06/14 03:16:33;;;;;;;6.07;3.88;;;;;;;13.40;44.46;96017.06;5022075;28;20125;-69
2023/06/14 03:18:59;;;;;;;5.50;3.45;;;;;;;13.31;45.29;96024.97;5023360;28;20065;-69
2023/06/14 03:21:25;;;;;;;7.60;3.25;;;;;;;13.25;45.16;96023.78;5017768;28;20548;-69
2023/06/14 03:23:52;;;;;;;11.45;3.58;;;;;;;13.18;45.54;96024.59;5019143;28;20052;-67
2023/06/14 03:26:18;;;;;;;6.28;3.42;;;;;;;13.15;45.73;96022.66;5016393;28;20086;-69
2023/06/14 03:28:49;;;;;;;5.90;3.60;;;;;;;13.18;45.35;96027.34;5022647;28;20506;-70
2023/06/14 03:31:16;;;;;;;7.03;3.95;;;;;;;13.16;46.14;96025.00;5016327;28;20045;-69
2023/06/14 03:33:41;;;;;;;8.05;3.75;;;;;;;13.00;47.07;96030.19;5021560;28;20048;-68
2023/06/14 03:36:07;;;;;;;9.57;3.60;;;;;;;12.97;48.46;96031.75;5018026;28;20045;-69
2023/06/14 03:38:33;;;;;;;6.70;3.67;;;;;;;12.74;49.77;96040.47;5020659;28;20540;-69
2023/06/14 03:40:58;;;;;;;7.75;3.63;;;;;;;12.63;50.64;96047.94;5019855;28;20099;-69
2023/06/14 03:43:24;;;;;;;5.45;3.60;;;;;;;12.37;52.35;96043.66;5016190;28;20948;-67
2023/06/14 03:45:49;;;;;;;7.30;3.80;;;;;;;12.29;52.59;96042.13;5021473;28;20063;-69
2023/06/14 03:48:15;;;;;;;6.97;3.85;;;;;;;11.87;54.61;96049.94;5017564;28;20413;-69
2023/06/14 03:50:40;;;;;;;8.98;3.90;;;;;;;11.90;55.38;96059.34;5020400;28;20037;-68
2023/06/14 03:53:06;;;;;;;12.55;4.47;;;;;;;11.63;56.24;96059.69;5017222;28;20045;-71
2023/06/14 03:55:33;;;;;;;7.70;4.22;;;;;;;11.58;56.43;96065.56;5021535;28;20037;-69
2023/06/14 03:57:58;;;;;;;7.03;4.05;;;;;;;11.73;56.65;96060.91;5022246;28;20044;-67
2023/06/14 04:00:23;;;;;;;8.43;3.92;;;;;;;11.79;56.14;96068.34;5016243;28;20041;-69
2023/06/14 04:02:49;;;;;;;10.45;4.30;;;;;;;11.91;56.10;96080.16;5021348;28;20046;-69
2023/06/14 04:05:16;;;;;;;8.35;4.15;;;;;;;12.17;55.55;96077.03;5017228;28;20045;-68
2023/06/14 04:07:44;;;;;;;12.73;5.43;;;;;;;12.27;55.11;96071.94;5022444;28;20041;-69
2023/06/14 04:10:11;;;;;;;7.30;4.35;;;;;;;12.46;54.46;96088.00;5017621;28;20107;-70
2023/06/14 04:12:40;;;;;;;9.35;4.43;;;;;;;12.61;54.27;96088.78;5030216;28;20057;-69
2023/06/14 04:15:06;;;;;;;6.45;3.92;;;;;;;12.85;53.83;96084.41;5029825;28;20045;-68
2023/06/14 04:17:35;;;;;;;8.13;3.85;;;;;;;13.04;53.52;96091.44;5042150;28;20124;-68
2023/06/14 04:20:01;;;;;;;7.28;4.40;;;;;;;13.23;53.00;96092.91;5037940;28;20414;-68
2023/06/14 04:22:30;;;;;;;5.72;3.35;;;;;;;13.38;52.62;96094.47;5017201;28;20601;-69
2023/06/14 04:24:56;;;;;;;8.50;4.07;;;;;;;13.48;51.72;96103.06;5020576;28;20046;-69
2023/06/14 04:27:25;;;;;;;10.73;4.40;;;;;;;13.59;51.89;96101.03;5013589;28;20365;-69
2023/06/14 04:29:57;;;;;;;7.30;4.03;;;;;;;13.67;51.43;96107.31;5014773;28;20038;-68
2023/06/14 04:32:26;;;;;;;7.40;4.10;;;;;;;13.89;51.56;96100.47;4997410;28;20108;-69
2023/06/14 04:34:54;;;;;;;13.25;4.22;;;;;;;14.21;50.41;96101.47;5002225;28;20499;-68
2023/06/14 04:37:23;;;;;;;6.88;4.07;;;;;;;14.57;49.95;96096.44;4995343;28;20073;-69
2023/06/14 04:39:50;;;;;;;10.98;3.40;;;;;;;15.16;48.19;96103.75;5002140;28;20128;-70
2023/06/14 04:42:16;;;;;;;7.68;3.88;;;;;;;15.67;47.51;96103.94;4988945;28;20059;-69
2023/06/14 04:44:43;;;;;;;6.68;3.72;;;;;;;15.99;46.45;96113.75;5020781;28;20101;-70
2023/06/14 04:47:09;;;;;;;7.40;4.10;;;;;;;15.97;46.38;96111.44;5017220;28;20376;-70
2023/06/14 04:49:35;;;;;;;6.22;4.03;;;;;;;16.88;44.61;96108.03;5021211;28;20116;-68
2023/06/14 04:52:01;;;;;;;7.70;4.25;;;;;;;18.82;40.50;96113.00;5023531;28;20080;-67
2023/06/14 04:54:27;;;;;;;6.72;3.35;;;;;;;20.61;37.22;96107.06;5018062;28;20042;-70
2023/06/14 04:56:55;;;;;;;7.13;3.50;;;;;;;22.27;34.09;96104.78;5030644;28;20049;-70
2023/06/14 04:59:22;;;;;;;9.57;3.75;;;;;;;23.41;32.12;96109.66;5023643;28;20073;-68
2023/06/14 05:01:53;;;;;;;5.15;3.25;;;;;;;23.55;31.27;96116.63;5021599;28;20434;-68
2023/06/14 05:04:19;;;;;;;6.50;3.20;;;;;;;23.18;32.19;96118.66;5020167;28;20087;-68
2023/06/14 05:06:47;;;;;;;9.65;3.45;;;;;;;24.11;30.74;96113.72;5025705;28;20136;-69
2023/06/14 05:09:15;;;;;;;9.65;3.10;;;;;;;24.73;29.82;96118.00;5018925;28;20069;-70
2023/06/14 05:11:44;;;;;;;7.93;3.00;;;;;;;26.13;27.96;96119.22;5025034;28;20037;-69
2023/06/14 05:14:10;;;;;;;7.40;3.00;;;;;;;25.86;28.80;96120.28;5020183;28;20399;-69
2023/06/14 05:16:36;;;;;;;7.78;3.35;;;;;;;26.22;28.97;96124.75;5025045;28;20046;-67
2023/06/14 05:19:04;;;;;;;9.80;3.25;;;;;;;26.01;28.65;96123.09;5023308;28;20049;-66
2023/06/14 05:21:29;;;;;;;4.72;2.85;;;;;;;26.66;27.38;96115.47;5039164;28;20041;-70
2023/06/14 05:23:55;;;;;;;6.32;3.45;;;;;;;26.31;27.65;96123.84;5045435;28;20041;-68
2023/06/14 05:26:23;;;;;;;10.80;6.25;;;;;;;25.37;28.64;96117.59;5014357;28;20057;-72
2023/06/14 05:28:49;;;;;;;10.75;5.75;;;;;;;27.31;26.83;96120.19;5024862;28;20132;-71
2023/06/14 05:31:15;;;;;;;5.88;2.88;;;;;;;28.75;24.73;96123.31;5005207;28;20048;-70
2023/06/14 05:33:40;;;;;;;10.85;3.88;;;;;;;29.60;23.47;96132.19;5004442;28;20042;-70
2023/06/14 05:36:05;;;;;;;8.57;3.40;;;;;;;30.02;23.38;96141.06;4997473;28;20064;-70
2023/06/14 05:38:31;;;;;;;5.38;2.80;;;;;;;30.43;22.58;96140.59;5005652;28;20046;-71
2023/06/14 05:40:56;;;;;;;5.65;2.67;;;;;;;29.43;23.74;96142.66;5002697;28;20200;-70
2023/06/14 05:43:22;;;;;;;11.75;2.85;;;;;;;28.52;24.63;96144.94;5018063;28;20986;-69
2023/06/14 05:45:48;;;;;;;3.97;2.45;;;;;;;28.59;23.22;96152.16;5024889;28;20535;-70
2023/06/14 05:48:13;;;;;;;9.80;3.17;;;;;;;24.48;28.50;96152.78;5021676;28;20081;-69
2023/06/14 05:50:38;;;;;;;8.43;3.25;;;;;;;25.44;27.98;96146.50;5025661;28;20430;-71
2023/06/14 05:53:04;;;;;;;7.75;2.88;;;;;;;26.87;27.12;96147.19;5021817;28;20050;-66
2023/06/14 05:55:29;;;;;;;9.50;3.03;;;;;;;28.77;24.35;96148.19;5022976;28;20125;-69
2023/06/14 05:57:54;;;;;;;4.47;2.83;;;;;;;29.62;23.71;96145.81;5024923;28;20387;-70
2023/06/14 06:00:20;;;;;;;5.88;2.80;;;;;;;30.30;22.61;96152.38;5018897;28;20517;-71
2023/06/14 06:02:47;;;;;;;4.38;2.90;;;;;;;27.44;24.72;96156.38;5024036;28;20041;-69
2023/06/14 06:05:13;;;;;;;8.05;2.85;;;;;;;25.22;28.21;96161.56;5019338;28;20359;-70
2023/06/14 06:07:44;;;;;;;8.80;3.08;;;;;;;22.61;30.96;96152.47;5023100;28;20034;-69
2023/06/14 06:10:10;;;;;;;8.13;3.40;;;;;;;21.77;32.57;96156.84;5018808;28;20103;-69
2023/06/14 06:12:35;;;;;;;7.60;3.50;;;;;;;20.85;33.77;96161.56;5022359;28;20390;-71
2023/06/14 06:15:01;;;;;;;10.55;3.63;;;;;;;20.03;35.54;96154.56;5023088;28;20056;-70
2023/06/14 06:17:26;;;;;;;6.57;3.58;;;;;;;20.11;34.78;96161.44;5016390;28;20041;-70
2023/06/14 06:19:52;;;;;;;6.95;3.72;;;;;;;20.35;35.33;96163.94;5022407;28;20041;-70
2023/06/14 06:22:17;;;;;;;10.20;3.85;;;;;;;21.69;32.66;96164.66;5025363;28;20073;-70
2023/06/14 06:24:43;;;;;;;5.85;3.15;;;;;;;20.74;34.17;96164.69;5034592;28;20045;-72
2023/06/14 06:27:09;;;;;;;5.50;3.92;;;;;;;20.24;35.69;96162.25;5022254;28;20045;-70
2023/06/14 06:29:34;;;;;;;7.18;3.30;;;;;;;21.26;33.83;96165.38;5022855;28;20045;-69
2023/06/14 06:32:00;;;;;;;8.32;3.33;;;;;;;20.27;34.56;96170.91;5024153;28;20136;-68
2023/06/14 06:34:26;;;;;;;5.07;3.40;;;;;;;21.52;33.35;96166.09;5017538;28;20068;-70
2023/06/14 06:36:51;;;;;;;6.20;3.28;;;;;;;20.93;33.40;96171.25;5023059;28;20041;-68
2023/06/14 06:39:16;;;;;;;6.45;3.22;;;;;;;22.47;32.02;96165.75;5020140;28;20041;-71
2023/06/14 06:41:42;;;;;;;5.35;2.92;;;;;;;21.12;34.51;96183.34;5022933;28;20037;-69
2023/06/14 06:44:08;;;;;;;7.57;3.30;;;;;;;21.13;33.25;96173.78;5018105;28;20048;-68
2023/06/14 06:46:33;;;;;;;7.65;3.40;;;;;;;21.54;32.07;96172.00;5022740;28;20050;-70
2023/06/14 06:49:00;;;;;;;8.50;3.17;;;;;;;21.29;32.52;96175.63;5023323;28;20044;-71
2023/06/14 06:51:25;;;;;;;9.27;3.40;;;;;;;21.47;32.14;96170.22;5017711;28;20046;-71
2023/06/14 06:53:53;;;;;;;5.90;3.55;;;;;;;;;;5023406;28;20088;-70
2023/06/14 06:56:20;;;;;;;5.65;3.55;;;;;;;23.21;31.91;96171.56;5017594;28;20069;-71
2023/06/14 06:58:46;;;;;;;5.80;3.05;;;;;;;22.12;31.42;96179.03;5022952;28;20034;-71
2023/06/14 07:01:11;;;;;;;5.13;3.10;;;;;;;21.95;31.31;96176.47;5017593;28;20056;-71
2023/06/14 07:03:39;;;;;;;5.18;3.15;;;;;;;22.10;32.11;96179.47;5021750;28;20767;-70
2023/06/14 07:06:05;;;;;;;5.90;3.17;;;;;;;21.62;32.06;96181.63;5016411;28;20096;-69
2023/06/14 07:08:30;;;;;;;9.75;3.35;;;;;;;22.00;31.75;96183.44;5036898;28;20483;-71
2023/06/14 07:10:55;;;;;;;5.50;3.30;;;;;;;21.67;31.58;96195.00;5022494;28;20552;-71
2023/06/14 07:13:21;;;;;;;4.45;2.78;;;;;;;22.02;31.47;96183.00;5015884;28;20089;-71
2023/06/14 07:15:47;;;;;;;7.38;2.97;;;;;;;23.77;29.57;96183.53;5023512;28;20487;-69
2023/06/14 07:18:12;;;;;;;9.52;3.20;;;;;;;24.55;28.30;96189.63;5018787;28;20140;-69
2023/06/14 07:20:38;;;;;;;7.93;3.25;;;;;;;22.83;30.42;96183.88;5021663;28;20076;-69
2023/06/14 07:23:04;;;;;;;5.20;3.08;;;;;;;22.34;30.51;96190.19;5018003;28;20085;-66
2023/06/14 07:25:29;;;;;;;9.20;3.08;;;;;;;22.19;30.77;96195.50;5020135;28;20037;-69
2023/06/14 07:27:55;;;;;;;4.22;2.80;;;;;;;22.85;28.02;96200.16;5022632;28;20576;-70
2023/06/14 07:30:20;;;;;;;9.65;2.85;;;;;;;24.57;27.06;96191.97;5017943;28;20069;-70
2023/06/14 07:32:46;;;;;;;7.00;3.28;;;;;;;25.19;26.97;96202.53;5021511;28;20057;-71
2023/06/14 07:35:12;;;;;;;6.60;3.30;;;;;;;26.04;25.10;96193.06;5017080;28;20530;-70
2023/06/14 07:37:37;;;;;;;4.90;2.70;;;;;;;25.46;26.63;96195.25;5021508;28;20128;-71
2023/06/14 07:40:06;;;;;;;6.13;3.33;;;;;;;24.16;27.40;96197.78;5020002;28;20140;-70
2023/06/14 07:42:33;;;;;;;6.25;2.90;;;;;;;23.53;28.28;96191.75;5020969;28;20069;-69
2023/06/14 07:44:59;;;;;;;10.93;3.35;;;;;;;22.85;27.95;96189.78;5022231;28;20103;-69
2023/06/14 07:47:25;;;;;;;7.75;2.85;;;;;;;23.14;27.69;96197.00;5016906;28;20526;-70
2023/06/14 07:49:50;;;;;;;3.90;2.55;;;;;;;23.54;28.36;96198.91;5021432;28;20041;-70
2023/06/14 07:52:16;;;;;;;7.03;3.45;;;;;;;25.79;31.16;96199.19;5016032;28;20057;-70
2023/06/14 07:54:41;;;;;;;6.05;2.83;;;;;;;24.51;26.91;96199.44;5021732;28;20034;-70
2023/06/14 07:57:07;;;;;;;4.78;2.80;;;;;;;25.31;26.48;96197.19;5016904;28;20103;-70
2023/06/14 07:59:33;;;;;;;7.30;2.92;;;;;;;26.12;23.87;96201.84;5022174;28;20554;-70
2023/06/14 08:01:58;;;;;;;7.35;3.17;;;;;;;27.37;27.06;96193.34;5021884;28;20056;-68
2023/06/14 08:04:24;;;;;;;5.45;3.13;;;;;;;28.19;24.27;96199.66;5017533;28;20546;-71
2023/06/14 08:06:50;;;;;;;9.75;3.53;;;;;;;28.86;26.65;96186.69;5021270;28;20041;-69
2023/06/14 08:09:16;;;;;;;6.43;3.10;;;;;;;26.94;29.44;96188.16;5016514;28;20425;-71
2023/06/14 08:11:41;;;;;;;10.57;3.45;;;;;;;26.50;30.25;96189.75;5021291;28;20414;-70
2023/06/14 08:14:07;;;;;;;7.85;3.00;;;;;;;26.81;28.17;96193.31;5016479;28;20053;-69
2023/06/14 08:16:32;;;;;;;11.02;3.30;;;;;;;26.34;30.38;96176.19;5021749;28;20709;-70
2023/06/14 08:18:57;;;;;;;6.38;3.30;;;;;;;24.45;33.69;96185.28;5024242;28;20052;-70
2023/06/14 08:21:23;;;;;;;9.25;3.97;;;;;;;24.68;33.04;96181.00;5020278;28;20041;-69
2023/06/14 08:23:49;;;;;;;6.50;3.38;;;;;;;25.10;30.84;96187.78;5019381;28;20477;-69
2023/06/14 08:26:14;;;;;;;8.25;3.50;;;;;;;25.97;29.46;96179.41;5012467;28;20037;-69
2023/06/14 08:28:40;;;;;;;9.43;3.00;;;;;;;26.15;29.36;96186.88;5020854;28;20045;-68
2023/06/14 08:31:05;;;;;;;7.47;2.85;;;;;;;26.32;28.58;96187.91;5016441;28;20087;-67
2023/06/14 08:33:32;;;;;;;6.55;3.80;;;;;;;25.60;32.31;96192.94;5020678;28;20902;-70
2023/06/14 08:35:58;;;;;;;6.78;3.25;;;;;;;26.35;28.89;96188.22;5022049;28;20044;-70
2023/06/14 08:38:23;;;;;;;7.57;3.35;;;;;;;26.11;28.43;96194.72;5021240;28;20599;-69
2023/06/14 08:40:51;;;;;;;7.28;3.10;;;;;;;26.35;27.44;96205.06;5026275;28;20506;-70
2023/06/14 08:43:16;;;;;;;5.63;3.00;;;;;;;25.20;25.19;96203.31;5020114;28;20045;-70
2023/06/14 08:45:42;;;;;;;5.05;3.08;;;;;;;23.45;27.30;96196.88;5025605;28;20041;-68
2023/06/14 08:48:08;;;;;;;11.73;3.40;;;;;;;24.33;27.49;96192.63;5021084;28;20084;-70
2023/06/14 08:50:36;;;;;;;5.93;3.05;;;;;;;23.74;27.84;96192.84;5030747;28;20060;-68
2023/06/14 08:53:02;;;;;;;5.40;2.97;;;;;;;24.70;27.31;96197.34;5029818;28;20105;-71
2023/06/14 08:55:30;;;;;;;6.90;3.13;;;;;;;25.44;26.93;96202.56;5021441;28;20631;-70
2023/06/14 08:57:59;;;;;;;5.32;3.33;;;;;;;25.06;25.73;96199.19;5025469;28;20378;-70
2023/06/14 09:00:27;;;;;;;8.18;2.78;;;;;;;25.96;25.94;96199.53;5016981;28;20065;-70
2023/06/14 09:02:57;;;;;;;6.47;3.20;;;;;;;27.31;23.50;96201.72;5024139;28;20049;-68
2023/06/14 09:05:26;;;;;;;;;;;;;;;27.99;22.90;96200.50;5019699;28;20341;-69
2023/06/14 09:07:52;;;;;;;5.35;2.92;;;;;;;24.65;24.50;96214.78;5039453;28;20019;-70
2023/06/14 09:10:18;;;;;;;5.60;2.60;;;;;;;23.84;26.28;96204.81;5020672;28;20042;-70
2023/06/14 09:12:43;;;;;;;6.78;3.13;;;;;;;24.15;26.88;96203.88;5025200;28;20072;-69
2023/06/14 09:15:10;;;;;;;8.70;3.28;;;;;;;24.42;26.36;96205.81;5018966;28;20045;-68
2023/06/14 09:17:36;;;;;;;4.43;2.80;;;;;;;26.03;24.89;96201.94;5024211;28;20073;-70
2023/06/14 09:20:06;;;;;;;6.40;3.33;;;;;;;26.26;25.42;96203.13;5024301;28;20060;-70
2023/06/14 09:22:34;;;;;;;6.28;3.08;;;;;;;26.52;22.97;96194.88;5023172;28;20049;-70
2023/06/14 09:25:00;;;;;;;4.93;3.15;;;;;;;25.22;26.22;96195.19;5023691;28;20042;-70
2023/06/14 09:27:26;;;;;;;4.75;3.03;;;;;;;26.59;24.41;96200.09;5018799;28;20048;-69
2023/06/14 09:29:52;;;;;;;6.50;2.83;;;;;;;26.86;24.11;96206.66;5025112;28;20050;-70
2023/06/14 09:32:18;;;;;;;6.53;3.08;;;;;;;27.40;24.02;96207.19;5018735;28;20503;-69
2023/06/14 09:34:43;;;;;;;4.50;2.80;;;;;;;25.10;24.57;96207.41;5022718;28;20085;-70
2023/06/14 09:37:09;;;;;;;5.70;2.95;;;;;;;26.03;23.93;96207.56;5019364;28;20498;-71
2023/06/14 09:39:34;;;;;;;5.95;3.00;;;;;;;26.33;24.22;96209.13;5022577;28;20052;-70
2023/06/14 09:42:00;;;;;;;8.15;3.20;;;;;;;27.45;23.58;96202.91;5022421;28;20505;-66
2023/06/14 09:44:28;;;;;;;4.72;2.80;;;;;;;28.05;22.98;96197.72;5018616;28;20146;-70
2023/06/14 09:46:55;;;;;;;5.22;2.83;;;;;;;25.18;24.73;96212.19;5024762;28;20041;-70
2023/06/14 09:49:21;;;;;;;4.60;2.80;;;;;;;24.94;24.05;96212.19;5019359;28;20477;-69
2023/06/14 09:51:50;;;;;;;13.23;3.83;;;;;;;25.41;23.54;96212.72;5023974;28;20042;-69
2023/06/14 09:54:20;;;;;;;4.60;2.97;;;;;;;25.47;24.08;96207.97;5018324;28;20056;-68
2023/06/14 09:56:48;;;;;;;6.82;2.97;;;;;;;25.33;23.26;96206.66;5024047;28;20056;-69
2023/06/14 09:59:18;;;;;;;5.55;3.20;;;;;;;25.73;23.46;96197.03;5018817;28;20048;-70
2023/06/14 10:01:44;;;;;;;4.25;2.67;;;;;;;24.94;24.32;96195.38;5023972;28;20079;-70
2023/06/14 10:04:14;;;;;;;5.97;2.78;;;;;;;24.14;24.40;96205.09;5018598;28;20045;-71
2023/06/14 10:06:43;;;;;;;4.90;3.08;;;;;;;24.42;24.48;96201.00;5040871;28;20048;-69
2023/06/14 10:09:09;;;;;;;5.88;2.90;;;;;;;24.89;25.13;96206.44;5034089;28;20073;-68
2023/06/14 10:11:36;;;;;;;7.07;3.00;;;;;;;24.59;24.60;96206.25;5033681;28;20049;-68
2023/06/14 10:14:05;;;;;;;8.98;3.13;;;;;;;25.43;23.94;96206.63;5028675;28;20049;-70
2023/06/14 10:16:42;;;;;;;7.35;2.97;;;;;;;26.17;22.84;96204.00;5040545;28;20371;-70
2023/06/14 10:19:35;;;;;;;7.82;3.10;;;;;;;25.21;24.50;96206.88;5020637;28;20376;-70
2023/06/14 10:22:14;;;;;;;5.22;3.58;;;;;;;25.06;24.99;96210.38;5023728;28;20042;-67
2023/06/14 10:24:45;;;;;;;7.80;3.17;;;;;;;25.05;24.39;96206.06;5022789;28;20042;-70
2023/06/14 10:27:13;;;;;;;6.00;3.15;;;;;;;24.97;24.31;96207.63;5018753;28;20041;-69
2023/06/14 10:29:54;;;;;;;6.40;3.10;;;;;;;25.22;25.04;96197.22;5021743;28;20469;-70
2023/06/14 10:32:24;;;;;;;6.72;3.15;;;;;;;24.01;25.03;96197.66;5018079;28;20051;-70
2023/06/14 10:34:59;;;;;;;6.43;3.10;;;;;;;24.40;25.63;96203.50;5015502;28;20499;-69
2023/06/14 10:37:25;;;;;;;5.13;3.13;;;;;;;24.97;25.35;96210.44;4998198;28;20041;-70
2023/06/14 10:39:51;;;;;;;5.93;2.83;;;;;;;25.12;24.46;96205.69;5015849;28;20152;-70
2023/06/14 10:42:17;;;;;;;5.72;3.13;;;;;;;26.15;23.18;96195.28;5021802;28;20107;-71
2023/06/14 10:44:51;;;;;;;5.15;3.05;;;;;;;25.47;23.65;96196.00;5023056;28;20069;-71
2023/06/14 10:47:24;;;;;;;7.30;3.20;;;;;;;25.46;24.50;96192.44;5016760;28;20518;-71
2023/06/14 10:50:10;;;;;;;5.30;2.88;;;;;;;25.12;25.50;96188.09;5021493;28;20115;-70
2023/06/14 10:52:43;;;;;;;7.20;3.05;;;;;;;24.46;25.66;96194.47;5021530;28;20042;-70
2023/06/14 10:55:17;;;;;;;5.13;3.25;;;;;;;24.40;24.94;96199.94;5016598;28;20124;-70
2023/06/14 10:57:58;;;;;;;10.48;3.17;;;;;;;24.76;24.25;96198.28;5022607;28;20045;-70
2023/06/14 11:00:26;;;;;;;14.35;3.33;;;;;;;24.70;24.59;96186.16;5017627;28;20540;-71
2023/06/14 11:03:08;;;;;;;7.13;3.15;;;;;;;24.68;24.96;96195.00;5023737;28;20041;-71
2023/06/14 11:05:47;;;;;;;6.88;3.28;;;;;;;24.80;25.85;96198.88;5021707;28;20033;-71
2023/06/14 11:08:37;;;;;;;5.22;3.38;;;;;;;25.26;25.48;96193.00;5018622;28;20510;-71
2023/06/14 11:11:07;;;;;;;6.05;3.08;;;;;;;25.45;25.24;96192.91;5034703;28;20422;-67
2023/06/14 11:13:32;;;;;;;7.20;3.50;;;;;;;25.27;24.46;96199.41;5022117;28;20128;-71
2023/06/14 11:15:58;;;;;;;5.82;3.55;;;;;;;24.46;25.30;96195.22;5022788;28;20132;-71
2023/06/14 11:18:24;;;;;;;5.07;3.40;;;;;;;24.53;25.60;96194.94;5015868;28;20543;-70
2023/06/14 11:20:50;;;;;;;6.13;3.60;;;;;;;25.24;24.56;96195.53;5023667;28;20091;-70
2023/06/14 11:23:15;;;;;;;5.53;3.20;;;;;;;25.09;24.71;96187.03;5037063;28;20079;-69
2023/06/14 11:25:41;;;;;;;5.55;3.00;;;;;;;26.02;23.93;96195.56;5025505;28;20045;-70
2023/06/14 11:28:07;;;;;;;9.50;2.80;;;;;;;26.52;24.53;96192.88;5015979;28;20045;-70
2023/06/14 11:30:32;;;;;;;7.20;3.20;;;;;;;26.95;23.81;96189.69;5021696;28;20148;-70
2023/06/14 11:32:57;;;;;;;6.32;3.05;;;;;;;25.72;23.83;96197.53;5021437;28;20051;-69